Batu Pahat, Malaysia
Current Conditions -  °F | °C
As of 1:00 PM on Tuesday 21 Oct 2014 (Local Time) from WMKJ Reporting Station
Thunderstorm Thunderstorm  
Wind Chill: 81°   Ceiling: 28000
Heat Index: 85°   Visibility: 6mi
Dew Point: 73°   Wind: 7mph
Humidity: 79%   Direction: 170°S
Pressure: 29.88"   Gusts: NA
Location:  1.85°N, 102.94°E
Report Text: WMKJ 210500Z 17006KT 120V210 9999 -TSRA FEW010 FEW017CB SCT018 BKN280 27/23 Q1012 RETSRA
Loading
Personal Weather Stations






























Interactive Weather Map
Tropical Storm Tracking
New forecast layout! Learn more

10-Day Weather Forecast

Advertisements
Track Severe Weather on mobile